Poulsbo, Washington
Current Conditions -  °F | °C
As of 11:35 AM on Thursday 27 Nov 2014 (Local Time) from KPWT Reporting Station
Overcast Overcast  
Wind Chill: 54°   Ceiling: 600
Heat Index: 54°   Visibility: 9mi
Dew Point: 54°   Wind: 17mph
Humidity: 100%   Direction: 180°S
Pressure: 29.84"   Gusts: 25mph
Location:  47.74°N, 122.65°W
Report Text: KPWT 271935Z AUTO 18015G22KT 9SM OVC006 12/12 A2984 RMK AO1
Loading
Personal Weather Stations






























Interactive Weather Map New forecast layout! Learn more

10-Day Weather Forecast

Advertisements
Track Severe Weather on mobile